sensor_id;sensor_type;location;lat;lon;timestamp;P1;durP1;ratioP1;P2;durP2;ratioP2
64842;SDS011;51310;52.198;5.422;2022-10-31T00:01:00;13.05;;;7.13;;
64842;SDS011;51310;52.198;5.422;2022-10-31T00:03:27;15.43;;;6.30;;
64842;SDS011;51310;52.198;5.422;2022-10-31T00:05:53;14.65;;;7.35;;
64842;SDS011;51310;52.198;5.422;2022-10-31T00:08:18;15.35;;;6.68;;
64842;SDS011;51310;52.198;5.422;2022-10-31T00:10:45;12.23;;;6.47;;
64842;SDS011;51310;52.198;5.422;2022-10-31T00:13:12;9.55;;;6.18;;
64842;SDS011;51310;52.198;5.422;2022-10-31T00:15:39;13.75;;;7.22;;
64842;SDS011;51310;52.198;5.422;2022-10-31T00:18:06;13.02;;;6.45;;
64842;SDS011;51310;52.198;5.422;2022-10-31T00:20:34;12.95;;;6.72;;
64842;SDS011;51310;52.198;5.422;2022-10-31T00:23:00;11.02;;;6.60;;
64842;SDS011;51310;52.198;5.422;2022-10-31T00:25:28;14.45;;;7.75;;
64842;SDS011;51310;52.198;5.422;2022-10-31T00:28:03;15.20;;;7.30;;
64842;SDS011;51310;52.198;5.422;2022-10-31T00:30:32;13.63;;;8.18;;
64842;SDS011;51310;52.198;5.422;2022-10-31T00:32:59;13.10;;;7.60;;
64842;SDS011;51310;52.198;5.422;2022-10-31T00:35:25;14.55;;;7.30;;
64842;SDS011;51310;52.198;5.422;2022-10-31T00:37:51;15.55;;;8.73;;
64842;SDS011;51310;52.198;5.422;2022-10-31T00:40:17;15.25;;;8.48;;
64842;SDS011;51310;52.198;5.422;2022-10-31T00:42:43;14.25;;;7.63;;
64842;SDS011;51310;52.198;5.422;2022-10-31T00:45:09;16.63;;;8.13;;
64842;SDS011;51310;52.198;5.422;2022-10-31T00:47:36;15.10;;;8.90;;
64842;SDS011;51310;52.198;5.422;2022-10-31T00:50:03;15.18;;;8.65;;
64842;SDS011;51310;52.198;5.422;2022-10-31T00:52:31;13.87;;;7.40;;
64842;SDS011;51310;52.198;5.422;2022-10-31T00:54:57;14.05;;;8.00;;
64842;SDS011;51310;52.198;5.422;2022-10-31T00:57:23;15.23;;;8.05;;
64842;SDS011;51310;52.198;5.422;2022-10-31T00:59:48;15.82;;;8.27;;
64842;SDS011;51310;52.198;5.422;2022-10-31T01:02:14;14.20;;;8.13;;
64842;SDS011;51310;52.198;5.422;2022-10-31T01:04:41;14.95;;;8.77;;
64842;SDS011;51310;52.198;5.422;2022-10-31T01:07:07;15.77;;;8.88;;
64842;SDS011;51310;52.198;5.422;2022-10-31T01:09:33;14.47;;;7.77;;
64842;SDS011;51310;52.198;5.422;2022-10-31T01:11:59;14.13;;;8.07;;
64842;SDS011;51310;52.198;5.422;2022-10-31T01:14:25;15.03;;;8.17;;
64842;SDS011;51310;52.198;5.422;2022-10-31T01:16:51;15.53;;;8.67;;
64842;SDS011;51310;52.198;5.422;2022-10-31T01:19:16;17.47;;;7.93;;
64842;SDS011;51310;52.198;5.422;2022-10-31T01:21:42;24.40;;;8.77;;
64842;SDS011;51310;52.198;5.422;2022-10-31T01:24:08;15.68;;;8.57;;
64842;SDS011;51310;52.198;5.422;2022-10-31T01:26:34;14.40;;;8.63;;
64842;SDS011;51310;52.198;5.422;2022-10-31T01:29:01;14.57;;;9.05;;
64842;SDS011;51310;52.198;5.422;2022-10-31T01:31:33;18.63;;;9.30;;
64842;SDS011;51310;52.198;5.422;2022-10-31T01:34:03;15.23;;;9.25;;
64842;SDS011;51310;52.198;5.422;2022-10-31T01:36:30;18.85;;;9.85;;
64842;SDS011;51310;52.198;5.422;2022-10-31T01:39:03;18.02;;;9.85;;
64842;SDS011;51310;52.198;5.422;2022-10-31T01:41:37;18.20;;;10.50;;
64842;SDS011;51310;52.198;5.422;2022-10-31T01:49:34;16.80;;;9.33;;
64842;SDS011;51310;52.198;5.422;2022-10-31T01:52:09;16.85;;;9.00;;
64842;SDS011;51310;52.198;5.422;2022-10-31T01:54:39;13.10;;;7.85;;
64842;SDS011;51310;52.198;5.422;2022-10-31T01:57:12;15.32;;;8.60;;
64842;SDS011;51310;52.198;5.422;2022-10-31T01:59:43;14.90;;;8.93;;
64842;SDS011;51310;52.198;5.422;2022-10-31T02:02:17;15.02;;;8.80;;
64842;SDS011;51310;52.198;5.422;2022-10-31T02:04:44;15.80;;;8.85;;
64842;SDS011;51310;52.198;5.422;2022-10-31T02:07:34;17.65;;;9.63;;
64842;SDS011;51310;52.198;5.422;2022-10-31T02:10:13;14.32;;;8.75;;
64842;SDS011;51310;52.198;5.422;2022-10-31T02:12:40;14.45;;;8.77;;
64842;SDS011;51310;52.198;5.422;2022-10-31T02:15:07;13.65;;;8.93;;
64842;SDS011;51310;52.198;5.422;2022-10-31T02:17:34;16.27;;;9.37;;
64842;SDS011;51310;52.198;5.422;2022-10-31T02:28:58;18.40;;;9.25;;
64842;SDS011;51310;52.198;5.422;2022-10-31T02:34:57;13.15;;;8.68;;
64842;SDS011;51310;52.198;5.422;2022-10-31T02:40:35;15.90;;;9.35;;
64842;SDS011;51310;52.198;5.422;2022-10-31T02:46:35;20.10;;;10.35;;
64842;SDS011;51310;52.198;5.422;2022-10-31T02:49:35;16.13;;;10.20;;
64842;SDS011;51310;52.198;5.422;2022-10-31T02:52:37;16.05;;;10.55;;
64842;SDS011;51310;52.198;5.422;2022-10-31T02:55:41;14.95;;;10.35;;
64842;SDS011;51310;52.198;5.422;2022-10-31T02:58:00;17.77;;;10.85;;
64842;SDS011;51310;52.198;5.422;2022-10-31T03:09:38;20.45;;;10.88;;
64842;SDS011;51310;52.198;5.422;2022-10-31T03:12:28;19.50;;;11.77;;
64842;SDS011;51310;52.198;5.422;2022-10-31T03:15:28;20.35;;;10.65;;
64842;SDS011;51310;52.198;5.422;2022-10-31T03:18:04;21.17;;;11.87;;
64842;SDS011;51310;52.198;5.422;2022-10-31T03:20:39;25.40;;;12.05;;
64842;SDS011;51310;52.198;5.422;2022-10-31T03:23:13;17.80;;;11.75;;
64842;SDS011;51310;52.198;5.422;2022-10-31T03:25:43;22.83;;;12.27;;
64842;SDS011;51310;52.198;5.422;2022-10-31T03:28:12;19.73;;;12.23;;
64842;SDS011;51310;52.198;5.422;2022-10-31T03:30:44;24.25;;;13.00;;
64842;SDS011;51310;52.198;5.422;2022-10-31T03:33:14;23.85;;;12.10;;
64842;SDS011;51310;52.198;5.422;2022-10-31T03:35:52;21.17;;;12.60;;
64842;SDS011;51310;52.198;5.422;2022-10-31T03:38:22;20.45;;;12.82;;
64842;SDS011;51310;52.198;5.422;2022-10-31T03:40:48;20.55;;;12.13;;
64842;SDS011;51310;52.198;5.422;2022-10-31T03:43:19;20.45;;;12.40;;
64842;SDS011;51310;52.198;5.422;2022-10-31T03:45:55;19.47;;;12.03;;
64842;SDS011;51310;52.198;5.422;2022-10-31T03:48:21;21.80;;;11.85;;
64842;SDS011;51310;52.198;5.422;2022-10-31T03:53:39;23.45;;;12.38;;
64842;SDS011;51310;52.198;5.422;2022-10-31T03:56:24;22.08;;;11.60;;
64842;SDS011;51310;52.198;5.422;2022-10-31T03:59:28;16.88;;;11.35;;
64842;SDS011;51310;52.198;5.422;2022-10-31T04:02:16;18.87;;;12.13;;
64842;SDS011;51310;52.198;5.422;2022-10-31T04:04:51;21.35;;;11.98;;
64842;SDS011;51310;52.198;5.422;2022-10-31T04:07:18;17.17;;;11.38;;
64842;SDS011;51310;52.198;5.422;2022-10-31T04:09:51;19.52;;;11.90;;
64842;SDS011;51310;52.198;5.422;2022-10-31T04:12:18;21.98;;;12.18;;
64842;SDS011;51310;52.198;5.422;2022-10-31T04:14:49;17.70;;;12.10;;
64842;SDS011;51310;52.198;5.422;2022-10-31T04:17:18;20.38;;;11.57;;
64842;SDS011;51310;52.198;5.422;2022-10-31T04:19:48;19.45;;;11.82;;
64842;SDS011;51310;52.198;5.422;2022-10-31T04:22:14;19.80;;;12.48;;
64842;SDS011;51310;52.198;5.422;2022-10-31T04:24:40;18.10;;;11.88;;
64842;SDS011;51310;52.198;5.422;2022-10-31T04:27:06;16.42;;;11.50;;
64842;SDS011;51310;52.198;5.422;2022-10-31T04:29:32;21.58;;;11.95;;
64842;SDS011;51310;52.198;5.422;2022-10-31T04:31:58;19.45;;;11.60;;
64842;SDS011;51310;52.198;5.422;2022-10-31T04:34:24;17.25;;;10.90;;
64842;SDS011;51310;52.198;5.422;2022-10-31T04:36:50;20.42;;;11.95;;
64842;SDS011;51310;52.198;5.422;2022-10-31T04:39:15;21.85;;;12.80;;
64842;SDS011;51310;52.198;5.422;2022-10-31T04:41:41;24.25;;;12.88;;
64842;SDS011;51310;52.198;5.422;2022-10-31T04:44:07;21.13;;;13.32;;
64842;SDS011;51310;52.198;5.422;2022-10-31T04:46:33;23.17;;;12.47;;
64842;SDS011;51310;52.198;5.422;2022-10-31T04:48:59;18.37;;;12.47;;
64842;SDS011;51310;52.198;5.422;2022-10-31T04:51:25;23.77;;;12.77;;
64842;SDS011;51310;52.198;5.422;2022-10-31T04:53:50;24.43;;;12.30;;
64842;SDS011;51310;52.198;5.422;2022-10-31T04:56:16;21.20;;;12.90;;
64842;SDS011;51310;52.198;5.422;2022-10-31T04:58:42;21.13;;;13.00;;
64842;SDS011;51310;52.198;5.422;2022-10-31T05:01:08;21.00;;;13.23;;
64842;SDS011;51310;52.198;5.422;2022-10-31T05:03:34;21.98;;;13.18;;
64842;SDS011;51310;52.198;5.422;2022-10-31T05:06:00;20.83;;;12.80;;
64842;SDS011;51310;52.198;5.422;2022-10-31T05:08:26;23.80;;;13.27;;
64842;SDS011;51310;52.198;5.422;2022-10-31T05:10:51;23.88;;;13.45;;
64842;SDS011;51310;52.198;5.422;2022-10-31T05:13:17;22.77;;;13.93;;
64842;SDS011;51310;52.198;5.422;2022-10-31T05:15:43;23.92;;;14.02;;
64842;SDS011;51310;52.198;5.422;2022-10-31T05:18:09;26.63;;;13.77;;
64842;SDS011;51310;52.198;5.422;2022-10-31T05:20:35;20.57;;;13.80;;
64842;SDS011;51310;52.198;5.422;2022-10-31T05:23:01;21.30;;;13.90;;
64842;SDS011;51310;52.198;5.422;2022-10-31T05:25:27;22.50;;;13.40;;
64842;SDS011;51310;52.198;5.422;2022-10-31T05:27:54;20.60;;;13.57;;
64842;SDS011;51310;52.198;5.422;2022-10-31T05:30:26;20.58;;;13.80;;
64842;SDS011;51310;52.198;5.422;2022-10-31T05:32:56;23.58;;;14.57;;
64842;SDS011;51310;52.198;5.422;2022-10-31T05:35:24;22.85;;;14.00;;
64842;SDS011;51310;52.198;5.422;2022-10-31T05:37:57;22.53;;;14.27;;
64842;SDS011;51310;52.198;5.422;2022-10-31T05:40:25;23.10;;;13.43;;
64842;SDS011;51310;52.198;5.422;2022-10-31T05:42:53;21.85;;;13.75;;
64842;SDS011;51310;52.198;5.422;2022-10-31T05:45:21;20.90;;;14.20;;
64842;SDS011;51310;52.198;5.422;2022-10-31T05:50:20;22.20;;;14.27;;
64842;SDS011;51310;52.198;5.422;2022-10-31T05:52:53;24.75;;;14.35;;
64842;SDS011;51310;52.198;5.422;2022-10-31T05:55:29;20.70;;;14.50;;
64842;SDS011;51310;52.198;5.422;2022-10-31T05:57:56;22.95;;;14.75;;
64842;SDS011;51310;52.198;5.422;2022-10-31T06:00:23;24.45;;;14.77;;
64842;SDS011;51310;52.198;5.422;2022-10-31T06:02:57;28.58;;;16.35;;
64842;SDS011;51310;52.198;5.422;2022-10-31T06:05:25;32.67;;;17.85;;
64842;SDS011;51310;52.198;5.422;2022-10-31T06:07:51;42.35;;;22.52;;
64842;SDS011;51310;52.198;5.422;2022-10-31T06:10:17;38.50;;;21.10;;
64842;SDS011;51310;52.198;5.422;2022-10-31T06:12:45;48.10;;;23.00;;
64842;SDS011;51310;52.198;5.422;2022-10-31T06:15:12;46.17;;;21.10;;
64842;SDS011;51310;52.198;5.422;2022-10-31T06:17:39;53.28;;;20.25;;
64842;SDS011;51310;52.198;5.422;2022-10-31T06:20:05;42.38;;;19.98;;
64842;SDS011;51310;52.198;5.422;2022-10-31T06:22:32;29.77;;;17.35;;
64842;SDS011;51310;52.198;5.422;2022-10-31T06:24:58;65.18;;;19.88;;
64842;SDS011;51310;52.198;5.422;2022-10-31T06:27:24;69.35;;;18.08;;
64842;SDS011;51310;52.198;5.422;2022-10-31T06:29:51;64.13;;;18.85;;
64842;SDS011;51310;52.198;5.422;2022-10-31T06:32:17;34.37;;;15.73;;
64842;SDS011;51310;52.198;5.422;2022-10-31T06:34:43;43.25;;;16.20;;
64842;SDS011;51310;52.198;5.422;2022-10-31T06:37:12;43.78;;;16.50;;
64842;SDS011;51310;52.198;5.422;2022-10-31T06:39:39;37.45;;;15.65;;
64842;SDS011;51310;52.198;5.422;2022-10-31T06:42:05;60.20;;;16.87;;
64842;SDS011;51310;52.198;5.422;2022-10-31T06:44:31;33.55;;;14.43;;
64842;SDS011;51310;52.198;5.422;2022-10-31T06:46:57;51.95;;;16.10;;
64842;SDS011;51310;52.198;5.422;2022-10-31T06:49:23;99.80;;;16.50;;
64842;SDS011;51310;52.198;5.422;2022-10-31T06:51:49;112.93;;;18.00;;
64842;SDS011;51310;52.198;5.422;2022-10-31T06:54:16;58.63;;;16.00;;
64842;SDS011;51310;52.198;5.422;2022-10-31T06:56:42;55.03;;;16.13;;
64842;SDS011;51310;52.198;5.422;2022-10-31T06:59:14;91.25;;;17.83;;
64842;SDS011;51310;52.198;5.422;2022-10-31T07:01:40;44.88;;;15.23;;
64842;SDS011;51310;52.198;5.422;2022-10-31T07:04:08;86.75;;;16.98;;
64842;SDS011;51310;52.198;5.422;2022-10-31T07:06:35;81.38;;;17.48;;
64842;SDS011;51310;52.198;5.422;2022-10-31T07:09:01;100.93;;;17.58;;
64842;SDS011;51310;52.198;5.422;2022-10-31T07:11:27;71.70;;;16.75;;
64842;SDS011;51310;52.198;5.422;2022-10-31T07:13:52;108.75;;;18.65;;
64842;SDS011;51310;52.198;5.422;2022-10-31T07:16:18;90.28;;;18.40;;
64842;SDS011;51310;52.198;5.422;2022-10-31T07:18:44;92.75;;;18.17;;
64842;SDS011;51310;52.198;5.422;2022-10-31T07:21:10;92.15;;;19.35;;
64842;SDS011;51310;52.198;5.422;2022-10-31T07:23:36;41.38;;;16.65;;
64842;SDS011;51310;52.198;5.422;2022-10-31T07:26:02;88.97;;;19.70;;
64842;SDS011;51310;52.198;5.422;2022-10-31T07:28:27;68.17;;;19.53;;
64842;SDS011;51310;52.198;5.422;2022-10-31T07:30:54;47.30;;;16.90;;
64842;SDS011;51310;52.198;5.422;2022-10-31T07:33:22;36.88;;;18.15;;
64842;SDS011;51310;52.198;5.422;2022-10-31T07:35:52;44.53;;;18.90;;
64842;SDS011;51310;52.198;5.422;2022-10-31T07:38:19;35.97;;;18.52;;
64842;SDS011;51310;52.198;5.422;2022-10-31T07:40:48;32.67;;;17.65;;
64842;SDS011;51310;52.198;5.422;2022-10-31T07:43:17;35.17;;;18.80;;
64842;SDS011;51310;52.198;5.422;2022-10-31T07:45:44;35.72;;;18.05;;
64842;SDS011;51310;52.198;5.422;2022-10-31T07:48:18;33.20;;;18.43;;
64842;SDS011;51310;52.198;5.422;2022-10-31T07:50:44;29.08;;;17.17;;
64842;SDS011;51310;52.198;5.422;2022-10-31T07:53:11;30.48;;;18.02;;
64842;SDS011;51310;52.198;5.422;2022-10-31T07:55:39;36.85;;;19.10;;
64842;SDS011;51310;52.198;5.422;2022-10-31T07:58:12;31.23;;;18.02;;
64842;SDS011;51310;52.198;5.422;2022-10-31T08:00:41;28.30;;;17.45;;
64842;SDS011;51310;52.198;5.422;2022-10-31T08:03:11;35.95;;;18.15;;
64842;SDS011;51310;52.198;5.422;2022-10-31T08:05:41;29.63;;;17.92;;
64842;SDS011;51310;52.198;5.422;2022-10-31T08:08:09;31.92;;;18.83;;
64842;SDS011;51310;52.198;5.422;2022-10-31T08:10:35;30.00;;;17.95;;
64842;SDS011;51310;52.198;5.422;2022-10-31T08:13:06;30.50;;;17.67;;
64842;SDS011;51310;52.198;5.422;2022-10-31T08:15:35;31.80;;;18.13;;
64842;SDS011;51310;52.198;5.422;2022-10-31T08:18:04;30.03;;;17.13;;
64842;SDS011;51310;52.198;5.422;2022-10-31T08:20:32;30.33;;;18.75;;
64842;SDS011;51310;52.198;5.422;2022-10-31T08:22:59;32.15;;;19.13;;
64842;SDS011;51310;52.198;5.422;2022-10-31T08:25:29;35.60;;;20.27;;
64842;SDS011;51310;52.198;5.422;2022-10-31T08:27:58;32.35;;;19.65;;
64842;SDS011;51310;52.198;5.422;2022-10-31T08:30:26;36.28;;;20.50;;
64842;SDS011;51310;52.198;5.422;2022-10-31T08:33:08;37.90;;;20.80;;
64842;SDS011;51310;52.198;5.422;2022-10-31T08:35:39;37.80;;;22.67;;
64842;SDS011;51310;52.198;5.422;2022-10-31T08:38:07;44.13;;;23.88;;
64842;SDS011;51310;52.198;5.422;2022-10-31T08:40:38;37.30;;;21.95;;
64842;SDS011;51310;52.198;5.422;2022-10-31T08:45:39;40.53;;;22.53;;
64842;SDS011;51310;52.198;5.422;2022-10-31T08:48:09;42.08;;;23.67;;
64842;SDS011;51310;52.198;5.422;2022-10-31T08:50:38;41.42;;;22.00;;
64842;SDS011;51310;52.198;5.422;2022-10-31T08:53:06;40.42;;;23.30;;
64842;SDS011;51310;52.198;5.422;2022-10-31T08:55:43;39.93;;;22.33;;
64842;SDS011;51310;52.198;5.422;2022-10-31T08:58:11;38.03;;;21.60;;
64842;SDS011;51310;52.198;5.422;2022-10-31T09:00:44;36.92;;;22.35;;
64842;SDS011;51310;52.198;5.422;2022-10-31T09:03:13;37.60;;;20.87;;
64842;SDS011;51310;52.198;5.422;2022-10-31T09:05:46;37.90;;;22.38;;
64842;SDS011;51310;52.198;5.422;2022-10-31T09:08:12;38.97;;;22.30;;
64842;SDS011;51310;52.198;5.422;2022-10-31T09:10:39;41.20;;;21.88;;
64842;SDS011;51310;52.198;5.422;2022-10-31T09:13:08;42.57;;;22.90;;
64842;SDS011;51310;52.198;5.422;2022-10-31T09:15:40;42.95;;;23.30;;
64842;SDS011;51310;52.198;5.422;2022-10-31T09:18:08;44.83;;;24.15;;
64842;SDS011;51310;52.198;5.422;2022-10-31T09:20:36;43.35;;;24.80;;
64842;SDS011;51310;52.198;5.422;2022-10-31T09:23:05;46.70;;;25.00;;
64842;SDS011;51310;52.198;5.422;2022-10-31T09:25:38;45.05;;;25.15;;
64842;SDS011;51310;52.198;5.422;2022-10-31T09:28:06;45.30;;;24.83;;
64842;SDS011;51310;52.198;5.422;2022-10-31T09:30:37;42.28;;;24.75;;
64842;SDS011;51310;52.198;5.422;2022-10-31T09:33:04;44.78;;;25.35;;
64842;SDS011;51310;52.198;5.422;2022-10-31T09:35:38;38.72;;;23.83;;
64842;SDS011;51310;52.198;5.422;2022-10-31T09:38:06;45.73;;;24.43;;
64842;SDS011;51310;52.198;5.422;2022-10-31T09:40:43;40.35;;;23.30;;
64842;SDS011;51310;52.198;5.422;2022-10-31T09:43:25;45.10;;;24.38;;
64842;SDS011;51310;52.198;5.422;2022-10-31T09:46:29;37.30;;;24.13;;
64842;SDS011;51310;52.198;5.422;2022-10-31T09:49:24;37.17;;;23.65;;
64842;SDS011;51310;52.198;5.422;2022-10-31T09:52:32;38.23;;;22.33;;
64842;SDS011;51310;52.198;5.422;2022-10-31T09:55:08;37.95;;;21.20;;
64842;SDS011;51310;52.198;5.422;2022-10-31T09:58:08;37.58;;;21.25;;
64842;SDS011;51310;52.198;5.422;2022-10-31T10:00:45;32.38;;;20.50;;
64842;SDS011;51310;52.198;5.422;2022-10-31T10:03:26;31.13;;;19.52;;
64842;SDS011;51310;52.198;5.422;2022-10-31T10:06:08;28.47;;;18.33;;
64842;SDS011;51310;52.198;5.422;2022-10-31T10:08:49;27.80;;;18.02;;
64842;SDS011;51310;52.198;5.422;2022-10-31T10:14:43;28.85;;;18.48;;
64842;SDS011;51310;52.198;5.422;2022-10-31T10:20:53;22.98;;;16.00;;
64842;SDS011;51310;52.198;5.422;2022-10-31T10:30:01;23.40;;;14.50;;
64842;SDS011;51310;52.198;5.422;2022-10-31T10:32:41;25.40;;;14.40;;
64842;SDS011;51310;52.198;5.422;2022-10-31T10:35:28;19.63;;;12.65;;
64842;SDS011;51310;52.198;5.422;2022-10-31T10:41:20;22.13;;;13.43;;
64842;SDS011;51310;52.198;5.422;2022-10-31T10:43:50;20.58;;;13.18;;
64842;SDS011;51310;52.198;5.422;2022-10-31T10:56:02;17.70;;;11.32;;
64842;SDS011;51310;52.198;5.422;2022-10-31T10:58:55;17.60;;;10.50;;
64842;SDS011;51310;52.198;5.422;2022-10-31T11:01:22;16.10;;;10.33;;
64842;SDS011;51310;52.198;5.422;2022-10-31T11:03:48;17.77;;;10.40;;
64842;SDS011;51310;52.198;5.422;2022-10-31T11:06:18;18.38;;;10.23;;
64842;SDS011;51310;52.198;5.422;2022-10-31T11:08:50;16.70;;;10.20;;
64842;SDS011;51310;52.198;5.422;2022-10-31T11:11:28;18.17;;;10.67;;
64842;SDS011;51310;52.198;5.422;2022-10-31T11:14:12;15.80;;;9.73;;
64842;SDS011;51310;52.198;5.422;2022-10-31T11:16:42;18.33;;;10.77;;
64842;SDS011;51310;52.198;5.422;2022-10-31T11:19:16;18.42;;;9.93;;
64842;SDS011;51310;52.198;5.422;2022-10-31T11:21:48;22.70;;;11.18;;
64842;SDS011;51310;52.198;5.422;2022-10-31T11:24:16;25.43;;;11.87;;
64842;SDS011;51310;52.198;5.422;2022-10-31T11:27:02;25.60;;;11.57;;
64842;SDS011;51310;52.198;5.422;2022-10-31T11:29:41;20.83;;;11.95;;
64842;SDS011;51310;52.198;5.422;2022-10-31T11:32:07;19.30;;;11.60;;
64842;SDS011;51310;52.198;5.422;2022-10-31T11:34:55;24.30;;;11.27;;
64842;SDS011;51310;52.198;5.422;2022-10-31T11:37:28;21.13;;;11.63;;
64842;SDS011;51310;52.198;5.422;2022-10-31T11:40:04;20.40;;;11.00;;
64842;SDS011;51310;52.198;5.422;2022-10-31T11:42:40;19.45;;;11.38;;
64842;SDS011;51310;52.198;5.422;2022-10-31T11:45:15;22.85;;;12.02;;
64842;SDS011;51310;52.198;5.422;2022-10-31T11:47:56;24.10;;;12.32;;
64842;SDS011;51310;52.198;5.422;2022-10-31T11:50:32;21.95;;;12.60;;
64842;SDS011;51310;52.198;5.422;2022-10-31T11:53:11;23.40;;;12.68;;
64842;SDS011;51310;52.198;5.422;2022-10-31T11:55:47;24.80;;;13.10;;
64842;SDS011;51310;52.198;5.422;2022-10-31T11:58:41;26.42;;;13.48;;
64842;SDS011;51310;52.198;5.422;2022-10-31T12:01:27;24.05;;;12.98;;
64842;SDS011;51310;52.198;5.422;2022-10-31T12:04:05;27.42;;;14.27;;
64842;SDS011;51310;52.198;5.422;2022-10-31T12:06:53;22.73;;;13.57;;
64842;SDS011;51310;52.198;5.422;2022-10-31T12:09:21;26.58;;;14.35;;
64842;SDS011;51310;52.198;5.422;2022-10-31T12:27:05;24.38;;;14.02;;
64842;SDS011;51310;52.198;5.422;2022-10-31T12:30:07;26.77;;;14.48;;
64842;SDS011;51310;52.198;5.422;2022-10-31T12:35:45;30.63;;;14.88;;
64842;SDS011;51310;52.198;5.422;2022-10-31T12:42:00;26.77;;;14.68;;
64842;SDS011;51310;52.198;5.422;2022-10-31T12:54:30;27.48;;;14.60;;
64842;SDS011;51310;52.198;5.422;2022-10-31T12:57:33;32.15;;;15.68;;
64842;SDS011;51310;52.198;5.422;2022-10-31T13:00:19;36.63;;;17.67;;
64842;SDS011;51310;52.198;5.422;2022-10-31T13:05:29;37.83;;;17.58;;
64842;SDS011;51310;52.198;5.422;2022-10-31T13:11:14;36.37;;;18.27;;
64842;SDS011;51310;52.198;5.422;2022-10-31T13:16:52;33.75;;;18.00;;
64842;SDS011;51310;52.198;5.422;2022-10-31T13:22:06;38.15;;;19.02;;
64842;SDS011;51310;52.198;5.422;2022-10-31T13:28:00;38.35;;;19.77;;
64842;SDS011;51310;52.198;5.422;2022-10-31T13:30:38;37.92;;;20.70;;
64842;SDS011;51310;52.198;5.422;2022-10-31T13:35:59;41.77;;;21.60;;
64842;SDS011;51310;52.198;5.422;2022-10-31T13:38:59;37.90;;;20.52;;
64842;SDS011;51310;52.198;5.422;2022-10-31T13:41:53;43.13;;;20.45;;
64842;SDS011;51310;52.198;5.422;2022-10-31T13:44:44;43.77;;;19.73;;
64842;SDS011;51310;52.198;5.422;2022-10-31T13:47:26;39.23;;;21.43;;
64842;SDS011;51310;52.198;5.422;2022-10-31T13:50:05;40.40;;;20.92;;
64842;SDS011;51310;52.198;5.422;2022-10-31T13:52:46;43.88;;;21.98;;
64842;SDS011;51310;52.198;5.422;2022-10-31T13:55:34;40.58;;;21.42;;
64842;SDS011;51310;52.198;5.422;2022-10-31T13:58:26;46.70;;;21.58;;
64842;SDS011;51310;52.198;5.422;2022-10-31T14:03:40;42.97;;;21.95;;
64842;SDS011;51310;52.198;5.422;2022-10-31T14:06:10;42.85;;;21.73;;
64842;SDS011;51310;52.198;5.422;2022-10-31T14:08:38;47.90;;;22.30;;
64842;SDS011;51310;52.198;5.422;2022-10-31T14:11:20;41.55;;;21.50;;
64842;SDS011;51310;52.198;5.422;2022-10-31T14:13:52;44.75;;;22.30;;
64842;SDS011;51310;52.198;5.422;2022-10-31T14:16:26;38.90;;;20.65;;
64842;SDS011;51310;52.198;5.422;2022-10-31T14:19:06;47.97;;;22.10;;
64842;SDS011;51310;52.198;5.422;2022-10-31T14:21:43;41.03;;;21.73;;
64842;SDS011;51310;52.198;5.422;2022-10-31T14:26:56;40.00;;;21.00;;
64842;SDS011;51310;52.198;5.422;2022-10-31T14:29:28;42.63;;;21.40;;
64842;SDS011;51310;52.198;5.422;2022-10-31T14:32:03;43.93;;;23.00;;
64842;SDS011;51310;52.198;5.422;2022-10-31T14:40:46;43.55;;;22.55;;
64842;SDS011;51310;52.198;5.422;2022-10-31T14:47:23;39.17;;;21.93;;
64842;SDS011;51310;52.198;5.422;2022-10-31T14:50:23;42.90;;;22.17;;
64842;SDS011;51310;52.198;5.422;2022-10-31T14:53:08;49.30;;;23.38;;
64842;SDS011;51310;52.198;5.422;2022-10-31T14:56:01;42.13;;;21.13;;
64842;SDS011;51310;52.198;5.422;2022-10-31T14:58:33;44.23;;;22.27;;
64842;SDS011;51310;52.198;5.422;2022-10-31T15:01:26;41.78;;;21.60;;
64842;SDS011;51310;52.198;5.422;2022-10-31T15:04:16;40.00;;;22.13;;
64842;SDS011;51310;52.198;5.422;2022-10-31T15:06:49;40.78;;;21.05;;
64842;SDS011;51310;52.198;5.422;2022-10-31T15:09:41;43.78;;;20.90;;
64842;SDS011;51310;52.198;5.422;2022-10-31T15:12:27;36.58;;;20.30;;
64842;SDS011;51310;52.198;5.422;2022-10-31T15:14:57;42.75;;;20.52;;
64842;SDS011;51310;52.198;5.422;2022-10-31T15:17:48;43.33;;;20.43;;
64842;SDS011;51310;52.198;5.422;2022-10-31T15:20:22;33.20;;;18.92;;
64842;SDS011;51310;52.198;5.422;2022-10-31T15:22:58;39.70;;;20.67;;
64842;SDS011;51310;52.198;5.422;2022-10-31T15:25:27;42.65;;;18.63;;
64842;SDS011;51310;52.198;5.422;2022-10-31T15:27:59;37.45;;;19.48;;
64842;SDS011;51310;52.198;5.422;2022-10-31T15:30:26;39.22;;;19.80;;
64842;SDS011;51310;52.198;5.422;2022-10-31T15:32:54;38.97;;;19.13;;
64842;SDS011;51310;52.198;5.422;2022-10-31T15:35:22;35.40;;;18.80;;
64842;SDS011;51310;52.198;5.422;2022-10-31T15:37:54;45.63;;;20.25;;
64842;SDS011;51310;52.198;5.422;2022-10-31T15:40:24;44.20;;;20.15;;
64842;SDS011;51310;52.198;5.422;2022-10-31T15:43:10;36.17;;;19.17;;
64842;SDS011;51310;52.198;5.422;2022-10-31T15:45:41;36.20;;;18.52;;
64842;SDS011;51310;52.198;5.422;2022-10-31T15:48:23;33.20;;;17.90;;
64842;SDS011;51310;52.198;5.422;2022-10-31T15:50:51;39.42;;;19.27;;
64842;SDS011;51310;52.198;5.422;2022-10-31T15:54:10;41.30;;;18.70;;
64842;SDS011;51310;52.198;5.422;2022-10-31T15:56:19;41.22;;;18.88;;
64842;SDS011;51310;52.198;5.422;2022-10-31T15:58:51;39.30;;;18.98;;
64842;SDS011;51310;52.198;5.422;2022-10-31T16:01:21;38.22;;;19.55;;
64842;SDS011;51310;52.198;5.422;2022-10-31T16:04:19;35.33;;;19.48;;
64842;SDS011;51310;52.198;5.422;2022-10-31T16:09:53;36.50;;;18.85;;
64842;SDS011;51310;52.198;5.422;2022-10-31T16:12:27;37.65;;;17.70;;
64842;SDS011;51310;52.198;5.422;2022-10-31T16:15:03;35.53;;;17.53;;
64842;SDS011;51310;52.198;5.422;2022-10-31T16:17:40;39.47;;;18.70;;
64842;SDS011;51310;52.198;5.422;2022-10-31T16:20:25;36.75;;;18.45;;
64842;SDS011;51310;52.198;5.422;2022-10-31T16:22:54;40.17;;;19.40;;
64842;SDS011;51310;52.198;5.422;2022-10-31T16:25:25;36.45;;;18.52;;
64842;SDS011;51310;52.198;5.422;2022-10-31T16:28:03;36.53;;;18.77;;
64842;SDS011;51310;52.198;5.422;2022-10-31T16:30:51;35.33;;;16.88;;
64842;SDS011;51310;52.198;5.422;2022-10-31T16:33:27;39.83;;;17.75;;
64842;SDS011;51310;52.198;5.422;2022-10-31T16:36:01;41.88;;;19.50;;
64842;SDS011;51310;52.198;5.422;2022-10-31T16:38:53;36.47;;;18.92;;
64842;SDS011;51310;52.198;5.422;2022-10-31T16:41:19;38.75;;;20.02;;
64842;SDS011;51310;52.198;5.422;2022-10-31T16:43:46;40.15;;;19.90;;
64842;SDS011;51310;52.198;5.422;2022-10-31T16:46:12;47.08;;;19.80;;
64842;SDS011;51310;52.198;5.422;2022-10-31T16:48:49;40.33;;;19.63;;
64842;SDS011;51310;52.198;5.422;2022-10-31T16:51:15;40.20;;;19.43;;
64842;SDS011;51310;52.198;5.422;2022-10-31T16:53:41;37.03;;;19.25;;
64842;SDS011;51310;52.198;5.422;2022-10-31T16:56:11;40.80;;;19.10;;
64842;SDS011;51310;52.198;5.422;2022-10-31T16:58:44;43.20;;;19.30;;
64842;SDS011;51310;52.198;5.422;2022-10-31T17:01:10;38.35;;;20.23;;
64842;SDS011;51310;52.198;5.422;2022-10-31T17:03:38;41.90;;;19.05;;
64842;SDS011;51310;52.198;5.422;2022-10-31T17:06:04;42.75;;;19.95;;
64842;SDS011;51310;52.198;5.422;2022-10-31T17:08:30;44.08;;;21.13;;
64842;SDS011;51310;52.198;5.422;2022-10-31T17:10:57;44.60;;;21.85;;